sensor_id;sensor_type;location;lat;lon;timestamp;P1;durP1;ratioP1;P2;durP2;ratioP2
64560;SDS011;50960;46.838;16.838;2023-01-16T00:01:16;9.32;;;8.48;;
64560;SDS011;50960;46.838;16.838;2023-01-16T00:03:43;9.25;;;8.35;;
64560;SDS011;50960;46.838;16.838;2023-01-16T00:06:11;10.93;;;8.60;;
64560;SDS011;50960;46.838;16.838;2023-01-16T00:08:37;10.68;;;9.65;;
64560;SDS011;50960;46.838;16.838;2023-01-16T00:11:03;11.27;;;9.35;;
64560;SDS011;50960;46.838;16.838;2023-01-16T00:13:30;10.25;;;9.25;;
64560;SDS011;50960;46.838;16.838;2023-01-16T00:15:56;11.57;;;9.98;;
64560;SDS011;50960;46.838;16.838;2023-01-16T00:18:22;10.75;;;9.55;;
64560;SDS011;50960;46.838;16.838;2023-01-16T00:20:48;10.23;;;9.23;;
64560;SDS011;50960;46.838;16.838;2023-01-16T00:23:15;10.15;;;9.00;;
64560;SDS011;50960;46.838;16.838;2023-01-16T00:25:42;9.65;;;8.70;;
64560;SDS011;50960;46.838;16.838;2023-01-16T00:28:09;9.70;;;8.70;;
64560;SDS011;50960;46.838;16.838;2023-01-16T00:30:37;9.63;;;8.73;;
64560;SDS011;50960;46.838;16.838;2023-01-16T00:33:04;10.18;;;9.18;;
64560;SDS011;50960;46.838;16.838;2023-01-16T00:35:31;9.15;;;8.25;;
64560;SDS011;50960;46.838;16.838;2023-01-16T00:37:58;9.02;;;8.13;;
64560;SDS011;50960;46.838;16.838;2023-01-16T00:40:25;9.02;;;7.93;;
64560;SDS011;50960;46.838;16.838;2023-01-16T00:42:52;8.07;;;7.38;;
64560;SDS011;50960;46.838;16.838;2023-01-16T00:45:18;8.07;;;7.38;;
64560;SDS011;50960;46.838;16.838;2023-01-16T00:47:44;7.50;;;6.82;;
64560;SDS011;50960;46.838;16.838;2023-01-16T00:50:11;7.57;;;6.88;;
64560;SDS011;50960;46.838;16.838;2023-01-16T00:52:37;6.95;;;6.35;;
64560;SDS011;50960;46.838;16.838;2023-01-16T00:55:04;6.35;;;5.80;;
64560;SDS011;50960;46.838;16.838;2023-01-16T00:57:31;5.53;;;5.10;;
64560;SDS011;50960;46.838;16.838;2023-01-16T00:59:57;4.97;;;4.57;;
64560;SDS011;50960;46.838;16.838;2023-01-16T01:02:23;5.05;;;4.65;;
64560;SDS011;50960;46.838;16.838;2023-01-16T01:04:50;4.75;;;4.35;;
64560;SDS011;50960;46.838;16.838;2023-01-16T01:07:16;3.80;;;3.60;;
64560;SDS011;50960;46.838;16.838;2023-01-16T01:09:42;4.30;;;4.00;;
64560;SDS011;50960;46.838;16.838;2023-01-16T01:12:09;3.80;;;3.50;;
64560;SDS011;50960;46.838;16.838;2023-01-16T01:14:35;3.75;;;3.45;;
64560;SDS011;50960;46.838;16.838;2023-01-16T01:17:01;3.72;;;3.45;;
64560;SDS011;50960;46.838;16.838;2023-01-16T01:19:27;4.25;;;3.85;;
64560;SDS011;50960;46.838;16.838;2023-01-16T01:21:54;4.25;;;3.85;;
64560;SDS011;50960;46.838;16.838;2023-01-16T01:24:20;3.92;;;3.63;;
64560;SDS011;50960;46.838;16.838;2023-01-16T01:26:46;4.20;;;3.80;;
64560;SDS011;50960;46.838;16.838;2023-01-16T01:29:12;4.15;;;3.83;;
64560;SDS011;50960;46.838;16.838;2023-01-16T01:31:39;4.63;;;4.18;;
64560;SDS011;50960;46.838;16.838;2023-01-16T01:34:05;4.60;;;4.15;;
64560;SDS011;50960;46.838;16.838;2023-01-16T01:36:31;4.50;;;4.10;;
64560;SDS011;50960;46.838;16.838;2023-01-16T01:38:58;4.40;;;4.00;;
64560;SDS011;50960;46.838;16.838;2023-01-16T01:41:24;4.50;;;4.15;;
64560;SDS011;50960;46.838;16.838;2023-01-16T01:43:51;4.00;;;3.70;;
64560;SDS011;50960;46.838;16.838;2023-01-16T01:48:57;4.22;;;3.92;;
64560;SDS011;50960;46.838;16.838;2023-01-16T01:51:32;4.18;;;3.67;;
64560;SDS011;50960;46.838;16.838;2023-01-16T01:54:04;4.45;;;3.90;;
64560;SDS011;50960;46.838;16.838;2023-01-16T01:56:36;4.80;;;4.40;;
64560;SDS011;50960;46.838;16.838;2023-01-16T01:59:08;4.10;;;3.80;;
64560;SDS011;50960;46.838;16.838;2023-01-16T02:01:39;4.05;;;3.75;;
64560;SDS011;50960;46.838;16.838;2023-01-16T02:04:07;3.92;;;3.63;;
64560;SDS011;50960;46.838;16.838;2023-01-16T02:06:41;3.88;;;3.58;;
64560;SDS011;50960;46.838;16.838;2023-01-16T02:09:11;3.60;;;3.30;;
64560;SDS011;50960;46.838;16.838;2023-01-16T02:11:40;5.80;;;5.20;;
64560;SDS011;50960;46.838;16.838;2023-01-16T02:14:35;4.78;;;4.38;;
64560;SDS011;50960;46.838;16.838;2023-01-16T02:17:11;4.10;;;3.80;;
64560;SDS011;50960;46.838;16.838;2023-01-16T02:28:23;4.13;;;3.83;;
64560;SDS011;50960;46.838;16.838;2023-01-16T02:36:35;3.65;;;3.35;;
64560;SDS011;50960;46.838;16.838;2023-01-16T02:39:27;3.65;;;3.38;;
64560;SDS011;50960;46.838;16.838;2023-01-16T02:51:26;2.85;;;2.65;;
64560;SDS011;50960;46.838;16.838;2023-01-16T02:54:07;2.70;;;2.50;;
64560;SDS011;50960;46.838;16.838;2023-01-16T02:56:43;2.80;;;2.60;;
64560;SDS011;50960;46.838;16.838;2023-01-16T02:59:13;2.97;;;2.78;;
64560;SDS011;50960;46.838;16.838;2023-01-16T03:01:40;3.05;;;2.85;;
64560;SDS011;50960;46.838;16.838;2023-01-16T03:07:03;2.28;;;2.17;;
64560;SDS011;50960;46.838;16.838;2023-01-16T03:09:44;2.50;;;2.30;;
64560;SDS011;50960;46.838;16.838;2023-01-16T03:18:10;1.42;;;1.38;;
64560;SDS011;50960;46.838;16.838;2023-01-16T03:20:50;1.70;;;1.60;;
64560;SDS011;50960;46.838;16.838;2023-01-16T03:26:24;1.88;;;1.77;;
64560;SDS011;50960;46.838;16.838;2023-01-16T03:28:57;2.03;;;1.92;;
64560;SDS011;50960;46.838;16.838;2023-01-16T03:31:49;2.03;;;1.83;;
64560;SDS011;50960;46.838;16.838;2023-01-16T03:36:49;2.28;;;2.17;;
64560;SDS011;50960;46.838;16.838;2023-01-16T03:39:30;2.20;;;2.00;;
64560;SDS011;50960;46.838;16.838;2023-01-16T03:42:04;2.83;;;2.40;;
64560;SDS011;50960;46.838;16.838;2023-01-16T03:44:40;2.80;;;2.60;;
64560;SDS011;50960;46.838;16.838;2023-01-16T03:47:14;1.98;;;1.88;;
64560;SDS011;50960;46.838;16.838;2023-01-16T03:49:47;2.20;;;2.10;;
64560;SDS011;50960;46.838;16.838;2023-01-16T03:52:19;2.47;;;2.28;;
64560;SDS011;50960;46.838;16.838;2023-01-16T03:57:32;2.70;;;2.28;;
64560;SDS011;50960;46.838;16.838;2023-01-16T04:00:05;2.40;;;2.30;;
64560;SDS011;50960;46.838;16.838;2023-01-16T04:05:20;2.60;;;2.40;;
64560;SDS011;50960;46.838;16.838;2023-01-16T04:08:11;2.60;;;2.40;;
64560;SDS011;50960;46.838;16.838;2023-01-16T04:10:45;2.60;;;2.40;;
64560;SDS011;50960;46.838;16.838;2023-01-16T04:13:17;2.60;;;2.40;;
64560;SDS011;50960;46.838;16.838;2023-01-16T04:15:54;2.80;;;2.60;;
64560;SDS011;50960;46.838;16.838;2023-01-16T04:18:24;3.05;;;2.75;;
64560;SDS011;50960;46.838;16.838;2023-01-16T04:20:55;3.40;;;3.10;;
64560;SDS011;50960;46.838;16.838;2023-01-16T04:23:21;2.75;;;2.63;;
64560;SDS011;50960;46.838;16.838;2023-01-16T04:25:48;3.00;;;2.80;;
64560;SDS011;50960;46.838;16.838;2023-01-16T04:28:14;3.30;;;3.10;;
64560;SDS011;50960;46.838;16.838;2023-01-16T04:30:41;3.20;;;2.90;;
64560;SDS011;50960;46.838;16.838;2023-01-16T04:33:07;3.33;;;3.08;;
64560;SDS011;50960;46.838;16.838;2023-01-16T04:35:34;3.63;;;3.30;;
64560;SDS011;50960;46.838;16.838;2023-01-16T04:38:00;3.15;;;2.88;;
64560;SDS011;50960;46.838;16.838;2023-01-16T04:40:26;3.10;;;2.90;;
64560;SDS011;50960;46.838;16.838;2023-01-16T04:42:53;2.78;;;2.58;;
64560;SDS011;50960;46.838;16.838;2023-01-16T04:45:20;2.55;;;2.35;;
64560;SDS011;50960;46.838;16.838;2023-01-16T04:47:47;2.28;;;2.03;;
64560;SDS011;50960;46.838;16.838;2023-01-16T04:50:16;2.03;;;1.92;;
64560;SDS011;50960;46.838;16.838;2023-01-16T04:52:42;2.05;;;1.80;;
64560;SDS011;50960;46.838;16.838;2023-01-16T04:55:09;1.67;;;1.58;;
64560;SDS011;50960;46.838;16.838;2023-01-16T04:57:36;1.42;;;1.40;;
64560;SDS011;50960;46.838;16.838;2023-01-16T05:00:04;1.42;;;1.33;;
64560;SDS011;50960;46.838;16.838;2023-01-16T05:02:32;1.45;;;1.35;;
64560;SDS011;50960;46.838;16.838;2023-01-16T05:04:58;1.45;;;1.35;;
64560;SDS011;50960;46.838;16.838;2023-01-16T05:07:25;1.30;;;1.20;;
64560;SDS011;50960;46.838;16.838;2023-01-16T05:09:52;1.30;;;1.20;;
64560;SDS011;50960;46.838;16.838;2023-01-16T05:12:19;1.38;;;1.27;;
64560;SDS011;50960;46.838;16.838;2023-01-16T05:14:45;1.50;;;1.40;;
64560;SDS011;50960;46.838;16.838;2023-01-16T05:17:12;1.40;;;1.30;;
64560;SDS011;50960;46.838;16.838;2023-01-16T05:19:40;1.50;;;1.40;;
64560;SDS011;50960;46.838;16.838;2023-01-16T05:22:07;1.73;;;1.63;;
64560;SDS011;50960;46.838;16.838;2023-01-16T05:24:33;1.70;;;1.60;;
64560;SDS011;50960;46.838;16.838;2023-01-16T05:26:59;1.80;;;1.70;;
64560;SDS011;50960;46.838;16.838;2023-01-16T05:29:25;1.63;;;1.52;;
64560;SDS011;50960;46.838;16.838;2023-01-16T05:31:52;1.70;;;1.60;;
64560;SDS011;50960;46.838;16.838;2023-01-16T05:34:18;1.38;;;1.30;;
64560;SDS011;50960;46.838;16.838;2023-01-16T05:36:44;1.02;;;1.02;;
64560;SDS011;50960;46.838;16.838;2023-01-16T05:39:10;1.27;;;1.17;;
64560;SDS011;50960;46.838;16.838;2023-01-16T05:41:37;1.58;;;1.23;;
64560;SDS011;50960;46.838;16.838;2023-01-16T05:44:03;1.50;;;1.20;;
64560;SDS011;50960;46.838;16.838;2023-01-16T05:46:30;1.30;;;1.30;;
64560;SDS011;50960;46.838;16.838;2023-01-16T05:49:02;1.20;;;1.20;;
64560;SDS011;50960;46.838;16.838;2023-01-16T05:51:37;1.17;;;1.17;;
64560;SDS011;50960;46.838;16.838;2023-01-16T05:54:12;1.48;;;1.38;;
64560;SDS011;50960;46.838;16.838;2023-01-16T05:56:42;0.82;;;0.82;;
64560;SDS011;50960;46.838;16.838;2023-01-16T05:59:09;1.60;;;1.02;;
64560;SDS011;50960;46.838;16.838;2023-01-16T06:01:36;1.20;;;1.20;;
64560;SDS011;50960;46.838;16.838;2023-01-16T06:04:03;1.15;;;1.00;;
64560;SDS011;50960;46.838;16.838;2023-01-16T06:06:29;0.80;;;0.80;;
64560;SDS011;50960;46.838;16.838;2023-01-16T06:08:55;1.00;;;0.77;;
64560;SDS011;50960;46.838;16.838;2023-01-16T06:11:22;0.90;;;0.90;;
64560;SDS011;50960;46.838;16.838;2023-01-16T06:13:48;1.60;;;1.02;;
64560;SDS011;50960;46.838;16.838;2023-01-16T06:16:14;0.80;;;0.80;;
64560;SDS011;50960;46.838;16.838;2023-01-16T06:18:41;1.13;;;0.88;;
64560;SDS011;50960;46.838;16.838;2023-01-16T06:21:07;0.80;;;0.80;;
64560;SDS011;50960;46.838;16.838;2023-01-16T06:23:33;0.55;;;0.55;;
64560;SDS011;50960;46.838;16.838;2023-01-16T06:26:00;1.27;;;0.80;;
64560;SDS011;50960;46.838;16.838;2023-01-16T06:28:28;0.82;;;0.70;;
64560;SDS011;50960;46.838;16.838;2023-01-16T06:30:54;0.65;;;0.65;;
64560;SDS011;50960;46.838;16.838;2023-01-16T06:33:21;0.60;;;0.60;;
64560;SDS011;50960;46.838;16.838;2023-01-16T06:35:47;0.70;;;0.70;;
64560;SDS011;50960;46.838;16.838;2023-01-16T06:38:15;0.70;;;0.70;;
64560;SDS011;50960;46.838;16.838;2023-01-16T06:40:42;0.65;;;0.65;;
64560;SDS011;50960;46.838;16.838;2023-01-16T06:43:10;0.80;;;0.80;;
64560;SDS011;50960;46.838;16.838;2023-01-16T06:45:37;0.70;;;0.70;;
64560;SDS011;50960;46.838;16.838;2023-01-16T06:48:03;1.38;;;0.73;;
64560;SDS011;50960;46.838;16.838;2023-01-16T06:50:30;0.80;;;0.80;;
64560;SDS011;50960;46.838;16.838;2023-01-16T06:52:56;0.85;;;0.85;;
64560;SDS011;50960;46.838;16.838;2023-01-16T06:55:22;1.50;;;1.40;;
64560;SDS011;50960;46.838;16.838;2023-01-16T06:57:48;1.20;;;1.20;;
64560;SDS011;50960;46.838;16.838;2023-01-16T07:00:15;1.17;;;1.17;;
64560;SDS011;50960;46.838;16.838;2023-01-16T07:02:42;0.70;;;0.70;;
64560;SDS011;50960;46.838;16.838;2023-01-16T07:05:09;0.93;;;0.60;;
64560;SDS011;50960;46.838;16.838;2023-01-16T07:07:35;0.63;;;0.63;;
64560;SDS011;50960;46.838;16.838;2023-01-16T07:10:02;0.77;;;0.77;;
64560;SDS011;50960;46.838;16.838;2023-01-16T07:12:29;1.05;;;0.98;;
64560;SDS011;50960;46.838;16.838;2023-01-16T07:14:55;0.80;;;0.80;;
64560;SDS011;50960;46.838;16.838;2023-01-16T07:17:40;0.90;;;0.90;;
64560;SDS011;50960;46.838;16.838;2023-01-16T07:20:25;0.75;;;0.65;;
64560;SDS011;50960;46.838;16.838;2023-01-16T07:23:30;0.90;;;0.90;;
64560;SDS011;50960;46.838;16.838;2023-01-16T07:25:59;0.70;;;0.70;;
64560;SDS011;50960;46.838;16.838;2023-01-16T07:28:30;3.90;;;3.50;;
64560;SDS011;50960;46.838;16.838;2023-01-16T07:30:57;2.05;;;1.42;;
64560;SDS011;50960;46.838;16.838;2023-01-16T07:33:23;1.20;;;1.20;;
64560;SDS011;50960;46.838;16.838;2023-01-16T07:35:50;1.58;;;1.48;;
64560;SDS011;50960;46.838;16.838;2023-01-16T07:38:16;0.90;;;0.90;;
64560;SDS011;50960;46.838;16.838;2023-01-16T07:40:47;1.40;;;1.30;;
64560;SDS011;50960;46.838;16.838;2023-01-16T07:43:13;1.00;;;1.00;;
64560;SDS011;50960;46.838;16.838;2023-01-16T07:45:40;1.58;;;1.48;;
64560;SDS011;50960;46.838;16.838;2023-01-16T07:48:06;0.88;;;0.88;;
64560;SDS011;50960;46.838;16.838;2023-01-16T07:50:32;1.10;;;1.10;;
64560;SDS011;50960;46.838;16.838;2023-01-16T07:52:59;1.00;;;1.00;;
64560;SDS011;50960;46.838;16.838;2023-01-16T07:55:26;1.08;;;1.08;;
64560;SDS011;50960;46.838;16.838;2023-01-16T07:57:52;1.10;;;1.10;;
64560;SDS011;50960;46.838;16.838;2023-01-16T08:00:19;1.20;;;1.10;;
64560;SDS011;50960;46.838;16.838;2023-01-16T08:02:45;1.33;;;1.23;;
64560;SDS011;50960;46.838;16.838;2023-01-16T08:05:11;1.20;;;1.20;;
64560;SDS011;50960;46.838;16.838;2023-01-16T08:07:38;1.27;;;1.27;;
64560;SDS011;50960;46.838;16.838;2023-01-16T08:10:05;1.60;;;1.50;;
64560;SDS011;50960;46.838;16.838;2023-01-16T08:12:32;1.52;;;1.42;;
64560;SDS011;50960;46.838;16.838;2023-01-16T08:14:58;1.48;;;1.40;;
64560;SDS011;50960;46.838;16.838;2023-01-16T08:17:25;1.50;;;1.40;;
64560;SDS011;50960;46.838;16.838;2023-01-16T08:19:51;1.85;;;1.30;;
64560;SDS011;50960;46.838;16.838;2023-01-16T08:22:18;1.30;;;1.20;;
64560;SDS011;50960;46.838;16.838;2023-01-16T08:24:44;1.00;;;1.00;;
64560;SDS011;50960;46.838;16.838;2023-01-16T08:27:10;1.17;;;1.02;;
64560;SDS011;50960;46.838;16.838;2023-01-16T08:29:37;1.30;;;1.20;;
64560;SDS011;50960;46.838;16.838;2023-01-16T08:32:04;1.45;;;1.20;;
64560;SDS011;50960;46.838;16.838;2023-01-16T08:34:30;1.10;;;1.10;;
64560;SDS011;50960;46.838;16.838;2023-01-16T08:36:56;1.02;;;1.02;;
64560;SDS011;50960;46.838;16.838;2023-01-16T08:39:23;1.33;;;1.00;;
64560;SDS011;50960;46.838;16.838;2023-01-16T08:41:51;1.00;;;1.00;;
64560;SDS011;50960;46.838;16.838;2023-01-16T08:44:35;1.17;;;1.08;;
64560;SDS011;50960;46.838;16.838;2023-01-16T08:47:22;1.20;;;1.20;;
64560;SDS011;50960;46.838;16.838;2023-01-16T08:50:12;1.00;;;1.00;;
64560;SDS011;50960;46.838;16.838;2023-01-16T08:52:58;0.90;;;0.90;;
64560;SDS011;50960;46.838;16.838;2023-01-16T08:55:25;1.10;;;1.10;;
64560;SDS011;50960;46.838;16.838;2023-01-16T08:57:51;1.00;;;1.00;;
64560;SDS011;50960;46.838;16.838;2023-01-16T09:00:18;1.38;;;1.27;;
64560;SDS011;50960;46.838;16.838;2023-01-16T09:02:47;1.60;;;1.50;;
64560;SDS011;50960;46.838;16.838;2023-01-16T09:05:13;1.60;;;1.50;;
64560;SDS011;50960;46.838;16.838;2023-01-16T09:07:40;1.83;;;1.73;;
64560;SDS011;50960;46.838;16.838;2023-01-16T09:10:06;1.40;;;1.30;;
64560;SDS011;50960;46.838;16.838;2023-01-16T09:12:33;1.20;;;1.20;;
64560;SDS011;50960;46.838;16.838;2023-01-16T09:15:18;1.50;;;1.40;;
64560;SDS011;50960;46.838;16.838;2023-01-16T09:17:46;1.55;;;1.20;;
64560;SDS011;50960;46.838;16.838;2023-01-16T09:20:13;1.52;;;1.40;;
64560;SDS011;50960;46.838;16.838;2023-01-16T09:22:39;3.00;;;2.67;;
64560;SDS011;50960;46.838;16.838;2023-01-16T09:25:06;1.80;;;1.70;;
64560;SDS011;50960;46.838;16.838;2023-01-16T09:27:32;1.98;;;1.83;;
64560;SDS011;50960;46.838;16.838;2023-01-16T09:29:59;2.10;;;1.90;;
64560;SDS011;50960;46.838;16.838;2023-01-16T09:32:25;2.08;;;1.90;;
64560;SDS011;50960;46.838;16.838;2023-01-16T09:34:52;2.00;;;1.90;;
64560;SDS011;50960;46.838;16.838;2023-01-16T09:37:18;2.10;;;1.70;;
64560;SDS011;50960;46.838;16.838;2023-01-16T09:39:45;2.78;;;1.92;;
64560;SDS011;50960;46.838;16.838;2023-01-16T09:45:06;1.90;;;1.70;;
64560;SDS011;50960;46.838;16.838;2023-01-16T09:47:36;1.88;;;1.77;;
64560;SDS011;50960;46.838;16.838;2023-01-16T09:52:33;2.38;;;2.17;;
64560;SDS011;50960;46.838;16.838;2023-01-16T09:55:26;1.92;;;1.83;;
64560;SDS011;50960;46.838;16.838;2023-01-16T09:58:18;1.88;;;1.65;;
64560;SDS011;50960;46.838;16.838;2023-01-16T10:03:33;1.77;;;1.67;;
64560;SDS011;50960;46.838;16.838;2023-01-16T10:06:12;1.73;;;1.63;;
64560;SDS011;50960;46.838;16.838;2023-01-16T10:08:57;1.70;;;1.60;;
64560;SDS011;50960;46.838;16.838;2023-01-16T10:11:32;2.10;;;2.00;;
64560;SDS011;50960;46.838;16.838;2023-01-16T10:14:04;1.92;;;1.80;;
64560;SDS011;50960;46.838;16.838;2023-01-16T10:16:56;2.13;;;1.90;;
64560;SDS011;50960;46.838;16.838;2023-01-16T10:35:59;3.55;;;2.25;;
64560;SDS011;50960;46.838;16.838;2023-01-16T10:38:36;2.78;;;2.58;;
64560;SDS011;50960;46.838;16.838;2023-01-16T10:41:16;3.30;;;3.10;;
64560;SDS011;50960;46.838;16.838;2023-01-16T10:44:23;4.45;;;3.10;;
64560;SDS011;50960;46.838;16.838;2023-01-16T10:47:15;3.45;;;3.15;;
64560;SDS011;50960;46.838;16.838;2023-01-16T10:50:01;3.50;;;3.10;;
64560;SDS011;50960;46.838;16.838;2023-01-16T10:52:28;3.95;;;2.88;;
64560;SDS011;50960;46.838;16.838;2023-01-16T10:54:55;2.50;;;2.30;;
64560;SDS011;50960;46.838;16.838;2023-01-16T10:57:24;2.85;;;2.65;;
64560;SDS011;50960;46.838;16.838;2023-01-16T10:59:51;3.45;;;3.10;;
64560;SDS011;50960;46.838;16.838;2023-01-16T11:02:34;4.22;;;3.25;;
64560;SDS011;50960;46.838;16.838;2023-01-16T11:05:22;4.53;;;3.30;;
64560;SDS011;50960;46.838;16.838;2023-01-16T11:08:01;2.88;;;2.67;;
64560;SDS011;50960;46.838;16.838;2023-01-16T11:10:31;2.60;;;2.40;;
64560;SDS011;50960;46.838;16.838;2023-01-16T11:12:59;2.63;;;2.50;;
64560;SDS011;50960;46.838;16.838;2023-01-16T11:16:00;3.25;;;3.00;;
64560;SDS011;50960;46.838;16.838;2023-01-16T11:18:51;3.17;;;2.92;;
64560;SDS011;50960;46.838;16.838;2023-01-16T11:21:26;3.22;;;2.35;;
64560;SDS011;50960;46.838;16.838;2023-01-16T11:23:59;2.95;;;2.75;;
64560;SDS011;50960;46.838;16.838;2023-01-16T11:26:29;2.67;;;2.47;;
64560;SDS011;50960;46.838;16.838;2023-01-16T11:28:56;2.40;;;2.20;;
64560;SDS011;50960;46.838;16.838;2023-01-16T11:31:24;1.95;;;1.85;;
64560;SDS011;50960;46.838;16.838;2023-01-16T11:34:10;3.13;;;2.88;;
64560;SDS011;50960;46.838;16.838;2023-01-16T11:36:40;2.83;;;2.63;;
64560;SDS011;50960;46.838;16.838;2023-01-16T11:39:14;2.55;;;2.35;;
64560;SDS011;50960;46.838;16.838;2023-01-16T11:41:48;2.28;;;2.10;;
64560;SDS011;50960;46.838;16.838;2023-01-16T11:44:29;2.08;;;1.98;;
64560;SDS011;50960;46.838;16.838;2023-01-16T11:47:18;2.40;;;2.20;;
64560;SDS011;50960;46.838;16.838;2023-01-16T11:49:49;2.50;;;2.30;;
64560;SDS011;50960;46.838;16.838;2023-01-16T11:52:19;2.70;;;2.50;;
64560;SDS011;50960;46.838;16.838;2023-01-16T11:54:53;4.57;;;3.13;;
64560;SDS011;50960;46.838;16.838;2023-01-16T12:11:26;3.58;;;3.28;;
64560;SDS011;50960;46.838;16.838;2023-01-16T12:14:36;4.60;;;4.20;;
64560;SDS011;50960;46.838;16.838;2023-01-16T12:17:22;4.40;;;3.95;;
64560;SDS011;50960;46.838;16.838;2023-01-16T12:21:00;4.40;;;4.00;;
64560;SDS011;50960;46.838;16.838;2023-01-16T12:31:47;4.00;;;3.70;;
64560;SDS011;50960;46.838;16.838;2023-01-16T12:42:40;4.55;;;3.70;;
64560;SDS011;50960;46.838;16.838;2023-01-16T12:45:49;3.50;;;3.25;;
64560;SDS011;50960;46.838;16.838;2023-01-16T13:01:40;3.83;;;3.45;;
64560;SDS011;50960;46.838;16.838;2023-01-16T13:04:15;5.10;;;3.78;;
64560;SDS011;50960;46.838;16.838;2023-01-16T13:06:50;4.18;;;3.78;;
64560;SDS011;50960;46.838;16.838;2023-01-16T13:09:32;3.17;;;2.97;;
64560;SDS011;50960;46.838;16.838;2023-01-16T13:12:39;4.18;;;3.78;;
64560;SDS011;50960;46.838;16.838;2023-01-16T13:15:26;5.80;;;4.80;;
64560;SDS011;50960;46.838;16.838;2023-01-16T13:18:06;8.15;;;6.35;;
64560;SDS011;50960;46.838;16.838;2023-01-16T13:20:55;3.78;;;3.47;;
64560;SDS011;50960;46.838;16.838;2023-01-16T13:23:25;3.25;;;2.95;;
64560;SDS011;50960;46.838;16.838;2023-01-16T13:26:03;4.75;;;3.35;;
64560;SDS011;50960;46.838;16.838;2023-01-16T13:28:36;4.28;;;3.20;;
64560;SDS011;50960;46.838;16.838;2023-01-16T13:31:15;3.60;;;3.30;;
64560;SDS011;50960;46.838;16.838;2023-01-16T13:33:55;2.92;;;2.63;;
64560;SDS011;50960;46.838;16.838;2023-01-16T13:36:29;2.90;;;2.70;;
64560;SDS011;50960;46.838;16.838;2023-01-16T13:42:06;3.50;;;3.20;;
64560;SDS011;50960;46.838;16.838;2023-01-16T13:44:39;3.20;;;3.00;;
64560;SDS011;50960;46.838;16.838;2023-01-16T13:47:33;3.65;;;3.15;;
64560;SDS011;50960;46.838;16.838;2023-01-16T13:50:48;3.28;;;3.05;;
64560;SDS011;50960;46.838;16.838;2023-01-16T13:53:07;3.60;;;3.30;;
64560;SDS011;50960;46.838;16.838;2023-01-16T13:55:37;3.90;;;3.50;;
64560;SDS011;50960;46.838;16.838;2023-01-16T14:00:41;4.50;;;3.33;;
64560;SDS011;50960;46.838;16.838;2023-01-16T14:03:22;4.22;;;3.35;;
64560;SDS011;50960;46.838;16.838;2023-01-16T14:11:56;3.80;;;3.50;;
64560;SDS011;50960;46.838;16.838;2023-01-16T14:14:31;3.63;;;3.33;;
64560;SDS011;50960;46.838;16.838;2023-01-16T14:17:19;3.95;;;3.60;;
64560;SDS011;50960;46.838;16.838;2023-01-16T14:19:55;4.38;;;3.97;;
64560;SDS011;50960;46.838;16.838;2023-01-16T14:22:35;5.53;;;4.93;;
64560;SDS011;50960;46.838;16.838;2023-01-16T14:25:24;4.50;;;4.10;;
64560;SDS011;50960;46.838;16.838;2023-01-16T14:27:56;5.55;;;4.70;;
64560;SDS011;50960;46.838;16.838;2023-01-16T14:30:24;4.97;;;4.55;;
64560;SDS011;50960;46.838;16.838;2023-01-16T14:32:55;5.63;;;4.70;;
64560;SDS011;50960;46.838;16.838;2023-01-16T14:35:28;5.43;;;4.97;;
64560;SDS011;50960;46.838;16.838;2023-01-16T14:38:08;8.27;;;5.60;;
64560;SDS011;50960;46.838;16.838;2023-01-16T14:40:46;7.05;;;6.35;;
64560;SDS011;50960;46.838;16.838;2023-01-16T14:43:46;7.82;;;7.03;;
64560;SDS011;50960;46.838;16.838;2023-01-16T14:47:44;8.52;;;7.05;;
64560;SDS011;50960;46.838;16.838;2023-01-16T14:56:05;8.77;;;7.88;;
64560;SDS011;50960;46.838;16.838;2023-01-16T14:58:45;7.15;;;6.35;;
64560;SDS011;50960;46.838;16.838;2023-01-16T15:04:31;7.40;;;6.50;;
64560;SDS011;50960;46.838;16.838;2023-01-16T15:07:24;8.73;;;7.53;;
64560;SDS011;50960;46.838;16.838;2023-01-16T15:10:00;9.48;;;6.70;;
64560;SDS011;50960;46.838;16.838;2023-01-16T15:12:50;6.53;;;5.93;;
64560;SDS011;50960;46.838;16.838;2023-01-16T15:15:21;7.05;;;6.38;;
64560;SDS011;50960;46.838;16.838;2023-01-16T15:17:49;6.57;;;5.88;;
64560;SDS011;50960;46.838;16.838;2023-01-16T15:20:36;7.22;;;6.47;;
64560;SDS011;50960;46.838;16.838;2023-01-16T15:31:06;7.65;;;6.10;;
64560;SDS011;50960;46.838;16.838;2023-01-16T15:33:44;6.43;;;5.70;;
64560;SDS011;50960;46.838;16.838;2023-01-16T15:38:47;6.47;;;5.88;;
64560;SDS011;50960;46.838;16.838;2023-01-16T15:41:28;5.40;;;4.90;;
64560;SDS011;50960;46.838;16.838;2023-01-16T15:44:17;5.30;;;4.80;;
64560;SDS011;50960;46.838;16.838;2023-01-16T15:47:10;4.60;;;4.20;;
64560;SDS011;50960;46.838;16.838;2023-01-16T15:52:31;4.72;;;4.32;;
64560;SDS011;50960;46.838;16.838;2023-01-16T15:55:14;4.80;;;4.40;;
64560;SDS011;50960;46.838;16.838;2023-01-16T15:57:52;6.57;;;5.90;;
64560;SDS011;50960;46.838;16.838;2023-01-16T16:00:29;5.00;;;4.57;;
64560;SDS011;50960;46.838;16.838;2023-01-16T16:03:22;5.63;;;5.13;;
64560;SDS011;50960;46.838;16.838;2023-01-16T16:06:07;7.07;;;6.40;;
64560;SDS011;50960;46.838;16.838;2023-01-16T16:08:36;5.20;;;4.70;;
64560;SDS011;50960;46.838;16.838;2023-01-16T16:11:19;5.75;;;5.25;;
64560;SDS011;50960;46.838;16.838;2023-01-16T16:14:19;4.30;;;3.90;;
64560;SDS011;50960;46.838;16.838;2023-01-16T16:25:46;4.50;;;4.10;;
64560;SDS011;50960;46.838;16.838;2023-01-16T16:33:25;5.57;;;4.32;;
64560;SDS011;50960;46.838;16.838;2023-01-16T16:35:54;4.30;;;3.92;;
64560;SDS011;50960;46.838;16.838;2023-01-16T16:38:24;5.82;;;5.28;;
64560;SDS011;50960;46.838;16.838;2023-01-16T16:43:49;5.90;;;4.63;;
64560;SDS011;50960;46.838;16.838;2023-01-16T16:48:54;5.95;;;5.45;;
64560;SDS011;50960;46.838;16.838;2023-01-16T16:51:32;4.15;;;3.80;;
64560;SDS011;50960;46.838;16.838;2023-01-16T16:54:01;4.60;;;4.30;;
64560;SDS011;50960;46.838;16.838;2023-01-16T16:56:33;4.75;;;4.35;;
64560;SDS011;50960;46.838;16.838;2023-01-16T16:59:03;4.80;;;4.32;;
64560;SDS011;50960;46.838;16.838;2023-01-16T17:01:30;5.32;;;4.82;;
64560;SDS011;50960;46.838;16.838;2023-01-16T17:03:57;4.30;;;3.90;;
64560;SDS011;50960;46.838;16.838;2023-01-16T17:06:28;5.22;;;4.72;;
64560;SDS011;50960;46.838;16.838;2023-01-16T17:08:57;5.07;;;4.68;;
64560;SDS011;50960;46.838;16.838;2023-01-16T17:11:24;5.47;;;4.97;;
64560;SDS011;50960;46.838;16.838;2023-01-16T17:13:52;5.28;;;4.78;;
64560;SDS011;50960;46.838;16.838;2023-01-16T17:16:20;5.60;;;5.20;;
64560;SDS011;50960;46.838;16.838;2023-01-16T17:19:00;4.82;;;4.43;;
64560;SDS011;50960;46.838;16.838;2023-01-16T17:21:29;5.45;;;4.95;;
64560;SDS011;50960;46.838;16.838;2023-01-16T17:23:55;5.57;;;5.15;;
64560;SDS011;50960;46.838;16.838;2023-01-16T17:26:22;6.10;;;5.60;;
64560;SDS011;50960;46.838;16.838;2023-01-16T17:28:48;5.53;;;5.03;;
64560;SDS011;50960;46.838;16.838;2023-01-16T17:31:16;4.75;;;4.35;;
64560;SDS011;50960;46.838;16.838;2023-01-16T17:33:45;4.72;;;4.32;;
64560;SDS011;50960;46.838;16.838;2023-01-16T17:36:21;4.80;;;4.40;;
64560;SDS011;50960;46.838;16.838;2023-01-16T17:38:49;4.63;;;4.22;;
64560;SDS011;50960;46.838;16.838;2023-01-16T17:41:23;4.80;;;4.40;;
64560;SDS011;50960;46.838;16.838;2023-01-16T17:43:56;5.00;;;4.60;;
64560;SDS011;50960;46.838;16.838;2023-01-16T17:46:41;8.27;;;7.30;;
64560;SDS011;50960;46.838;16.838;2023-01-16T17:49:08;4.85;;;4.45;;
64560;SDS011;50960;46.838;16.838;2023-01-16T17:51:34;5.18;;;4.78;;
64560;SDS011;50960;46.838;16.838;2023-01-16T17:54:01;4.90;;;4.40;;